sensor_id;sensor_type;location;lat;lon;timestamp;P1;durP1;ratioP1;P2;durP2;ratioP2
77350;SDS011;66420;50.246;14.320;2024-01-10T00:01:10;72.28;;;24.50;;
77350;SDS011;66420;50.246;14.320;2024-01-10T00:03:55;66.50;;;27.13;;
77350;SDS011;66420;50.246;14.320;2024-01-10T00:06:40;71.13;;;25.20;;
77350;SDS011;66420;50.246;14.320;2024-01-10T00:09:26;78.65;;;27.15;;
77350;SDS011;66420;50.246;14.320;2024-01-10T00:12:11;69.43;;;25.08;;
77350;SDS011;66420;50.246;14.320;2024-01-10T00:14:56;69.13;;;26.20;;
77350;SDS011;66420;50.246;14.320;2024-01-10T00:17:41;63.97;;;25.98;;
77350;SDS011;66420;50.246;14.320;2024-01-10T00:20:26;74.05;;;25.55;;
77350;SDS011;66420;50.246;14.320;2024-01-10T00:23:11;66.75;;;24.35;;
77350;SDS011;66420;50.246;14.320;2024-01-10T00:25:56;65.53;;;24.52;;
77350;SDS011;66420;50.246;14.320;2024-01-10T00:28:41;65.93;;;26.77;;
77350;SDS011;66420;50.246;14.320;2024-01-10T00:31:26;73.55;;;25.30;;
77350;SDS011;66420;50.246;14.320;2024-01-10T00:34:11;77.70;;;25.13;;
77350;SDS011;66420;50.246;14.320;2024-01-10T00:36:55;71.80;;;27.15;;
77350;SDS011;66420;50.246;14.320;2024-01-10T00:39:41;73.53;;;28.17;;
77350;SDS011;66420;50.246;14.320;2024-01-10T00:42:25;64.10;;;24.58;;
77350;SDS011;66420;50.246;14.320;2024-01-10T00:45:11;66.70;;;27.42;;
77350;SDS011;66420;50.246;14.320;2024-01-10T00:47:56;64.68;;;25.13;;
77350;SDS011;66420;50.246;14.320;2024-01-10T00:50:41;54.45;;;22.67;;
77350;SDS011;66420;50.246;14.320;2024-01-10T00:53:28;73.95;;;25.60;;
77350;SDS011;66420;50.246;14.320;2024-01-10T00:56:14;71.90;;;29.85;;
77350;SDS011;66420;50.246;14.320;2024-01-10T00:58:58;73.40;;;26.05;;
77350;SDS011;66420;50.246;14.320;2024-01-10T01:01:43;52.85;;;22.77;;
77350;SDS011;66420;50.246;14.320;2024-01-10T01:04:28;72.32;;;28.15;;
77350;SDS011;66420;50.246;14.320;2024-01-10T01:07:12;69.53;;;29.95;;
77350;SDS011;66420;50.246;14.320;2024-01-10T01:09:57;58.00;;;24.23;;
77350;SDS011;66420;50.246;14.320;2024-01-10T01:12:42;67.38;;;25.42;;
77350;SDS011;66420;50.246;14.320;2024-01-10T01:15:26;64.47;;;24.55;;
77350;SDS011;66420;50.246;14.320;2024-01-10T01:18:11;58.55;;;24.10;;
77350;SDS011;66420;50.246;14.320;2024-01-10T01:20:57;71.63;;;25.00;;
77350;SDS011;66420;50.246;14.320;2024-01-10T01:23:42;67.97;;;25.20;;
77350;SDS011;66420;50.246;14.320;2024-01-10T01:26:27;57.63;;;21.55;;
77350;SDS011;66420;50.246;14.320;2024-01-10T01:29:12;62.45;;;24.45;;
77350;SDS011;66420;50.246;14.320;2024-01-10T01:31:57;66.95;;;24.35;;
77350;SDS011;66420;50.246;14.320;2024-01-10T01:34:42;71.57;;;25.77;;
77350;SDS011;66420;50.246;14.320;2024-01-10T01:37:27;73.32;;;27.27;;
77350;SDS011;66420;50.246;14.320;2024-01-10T01:40:12;65.28;;;25.30;;
77350;SDS011;66420;50.246;14.320;2024-01-10T01:42:57;61.42;;;23.55;;
77350;SDS011;66420;50.246;14.320;2024-01-10T01:45:42;56.08;;;21.80;;
77350;SDS011;66420;50.246;14.320;2024-01-10T01:48:27;62.88;;;25.38;;
77350;SDS011;66420;50.246;14.320;2024-01-10T01:51:13;59.97;;;22.95;;
77350;SDS011;66420;50.246;14.320;2024-01-10T01:53:59;70.88;;;27.73;;
77350;SDS011;66420;50.246;14.320;2024-01-10T01:56:44;69.05;;;24.80;;
77350;SDS011;66420;50.246;14.320;2024-01-10T01:59:29;56.28;;;20.73;;
77350;SDS011;66420;50.246;14.320;2024-01-10T02:02:13;62.85;;;23.70;;
77350;SDS011;66420;50.246;14.320;2024-01-10T02:05:01;50.58;;;20.73;;
77350;SDS011;66420;50.246;14.320;2024-01-10T02:07:45;67.43;;;24.15;;
77350;SDS011;66420;50.246;14.320;2024-01-10T02:10:30;58.13;;;23.75;;
77350;SDS011;66420;50.246;14.320;2024-01-10T02:13:16;48.55;;;19.52;;
77350;SDS011;66420;50.246;14.320;2024-01-10T02:16:01;53.08;;;23.10;;
77350;SDS011;66420;50.246;14.320;2024-01-10T02:18:48;58.45;;;23.45;;
77350;SDS011;66420;50.246;14.320;2024-01-10T02:21:33;62.10;;;25.08;;
77350;SDS011;66420;50.246;14.320;2024-01-10T02:24:18;58.95;;;22.65;;
77350;SDS011;66420;50.246;14.320;2024-01-10T02:27:03;55.85;;;23.65;;
77350;SDS011;66420;50.246;14.320;2024-01-10T02:29:48;59.00;;;23.67;;
77350;SDS011;66420;50.246;14.320;2024-01-10T02:32:33;47.65;;;19.92;;
77350;SDS011;66420;50.246;14.320;2024-01-10T02:35:18;52.88;;;22.67;;
77350;SDS011;66420;50.246;14.320;2024-01-10T02:38:03;63.10;;;20.42;;
77350;SDS011;66420;50.246;14.320;2024-01-10T02:40:48;56.25;;;20.77;;
77350;SDS011;66420;50.246;14.320;2024-01-10T02:43:32;65.18;;;23.83;;
77350;SDS011;66420;50.246;14.320;2024-01-10T02:46:17;60.95;;;24.90;;
77350;SDS011;66420;50.246;14.320;2024-01-10T02:49:03;56.75;;;20.88;;
77350;SDS011;66420;50.246;14.320;2024-01-10T02:51:48;60.13;;;25.05;;
77350;SDS011;66420;50.246;14.320;2024-01-10T02:54:32;55.28;;;20.17;;
77350;SDS011;66420;50.246;14.320;2024-01-10T02:57:17;67.43;;;23.33;;
77350;SDS011;66420;50.246;14.320;2024-01-10T03:00:02;61.55;;;22.50;;
77350;SDS011;66420;50.246;14.320;2024-01-10T03:02:48;58.20;;;22.98;;
77350;SDS011;66420;50.246;14.320;2024-01-10T03:05:33;46.08;;;18.23;;
77350;SDS011;66420;50.246;14.320;2024-01-10T03:08:18;58.65;;;25.30;;
77350;SDS011;66420;50.246;14.320;2024-01-10T03:11:03;51.83;;;19.90;;
77350;SDS011;66420;50.246;14.320;2024-01-10T03:13:50;59.47;;;20.42;;
77350;SDS011;66420;50.246;14.320;2024-01-10T03:16:44;53.63;;;20.25;;
77350;SDS011;66420;50.246;14.320;2024-01-10T03:19:30;47.90;;;21.17;;
77350;SDS011;66420;50.246;14.320;2024-01-10T03:22:14;58.35;;;21.52;;
77350;SDS011;66420;50.246;14.320;2024-01-10T03:25:00;55.15;;;21.38;;
77350;SDS011;66420;50.246;14.320;2024-01-10T03:27:45;51.10;;;21.80;;
77350;SDS011;66420;50.246;14.320;2024-01-10T03:30:30;50.25;;;21.23;;
77350;SDS011;66420;50.246;14.320;2024-01-10T03:33:15;63.13;;;19.38;;
77350;SDS011;66420;50.246;14.320;2024-01-10T03:35:59;61.90;;;20.20;;
77350;SDS011;66420;50.246;14.320;2024-01-10T03:38:44;51.00;;;20.42;;
77350;SDS011;66420;50.246;14.320;2024-01-10T03:41:29;58.78;;;22.00;;
77350;SDS011;66420;50.246;14.320;2024-01-10T03:44:13;55.38;;;19.83;;
77350;SDS011;66420;50.246;14.320;2024-01-10T03:46:58;48.65;;;18.63;;
77350;SDS011;66420;50.246;14.320;2024-01-10T03:49:43;54.72;;;21.63;;
77350;SDS011;66420;50.246;14.320;2024-01-10T03:52:27;45.70;;;18.75;;
77350;SDS011;66420;50.246;14.320;2024-01-10T03:55:12;49.15;;;20.45;;
77350;SDS011;66420;50.246;14.320;2024-01-10T03:57:57;62.72;;;22.38;;
77350;SDS011;66420;50.246;14.320;2024-01-10T04:00:42;54.35;;;21.13;;
77350;SDS011;66420;50.246;14.320;2024-01-10T04:03:27;57.80;;;21.17;;
77350;SDS011;66420;50.246;14.320;2024-01-10T04:06:12;66.50;;;21.63;;
77350;SDS011;66420;50.246;14.320;2024-01-10T04:08:56;61.60;;;20.27;;
77350;SDS011;66420;50.246;14.320;2024-01-10T04:14:25;44.90;;;16.63;;
77350;SDS011;66420;50.246;14.320;2024-01-10T04:17:10;42.60;;;17.80;;
77350;SDS011;66420;50.246;14.320;2024-01-10T04:19:55;50.42;;;20.83;;
77350;SDS011;66420;50.246;14.320;2024-01-10T04:22:41;52.65;;;19.40;;
77350;SDS011;66420;50.246;14.320;2024-01-10T04:25:26;53.40;;;20.13;;
77350;SDS011;66420;50.246;14.320;2024-01-10T04:28:11;53.20;;;20.50;;
77350;SDS011;66420;50.246;14.320;2024-01-10T04:30:55;48.50;;;18.55;;
77350;SDS011;66420;50.246;14.320;2024-01-10T04:33:41;54.53;;;21.00;;
77350;SDS011;66420;50.246;14.320;2024-01-10T04:36:26;56.03;;;21.15;;
77350;SDS011;66420;50.246;14.320;2024-01-10T04:39:10;54.53;;;19.58;;
77350;SDS011;66420;50.246;14.320;2024-01-10T04:41:55;58.25;;;21.48;;
77350;SDS011;66420;50.246;14.320;2024-01-10T04:44:40;58.85;;;21.10;;
77350;SDS011;66420;50.246;14.320;2024-01-10T04:47:26;52.20;;;20.67;;
77350;SDS011;66420;50.246;14.320;2024-01-10T04:50:11;48.65;;;19.88;;
77350;SDS011;66420;50.246;14.320;2024-01-10T04:52:56;56.97;;;21.95;;
77350;SDS011;66420;50.246;14.320;2024-01-10T04:55:40;66.07;;;22.48;;
77350;SDS011;66420;50.246;14.320;2024-01-10T04:58:25;53.33;;;22.20;;
77350;SDS011;66420;50.246;14.320;2024-01-10T05:01:11;62.15;;;21.80;;
77350;SDS011;66420;50.246;14.320;2024-01-10T05:03:56;64.75;;;22.75;;
77350;SDS011;66420;50.246;14.320;2024-01-10T05:10:07;49.30;;;22.33;;
77350;SDS011;66420;50.246;14.320;2024-01-10T05:12:51;53.40;;;21.70;;
77350;SDS011;66420;50.246;14.320;2024-01-10T05:15:36;49.85;;;23.05;;
77350;SDS011;66420;50.246;14.320;2024-01-10T05:18:21;54.60;;;21.77;;
77350;SDS011;66420;50.246;14.320;2024-01-10T05:21:06;48.47;;;20.33;;
77350;SDS011;66420;50.246;14.320;2024-01-10T05:23:50;59.75;;;24.98;;
77350;SDS011;66420;50.246;14.320;2024-01-10T05:26:36;51.97;;;18.85;;
77350;SDS011;66420;50.246;14.320;2024-01-10T05:29:21;55.85;;;21.10;;
77350;SDS011;66420;50.246;14.320;2024-01-10T05:32:08;55.55;;;21.02;;
77350;SDS011;66420;50.246;14.320;2024-01-10T05:34:56;51.53;;;22.00;;
77350;SDS011;66420;50.246;14.320;2024-01-10T05:37:41;59.53;;;24.92;;
77350;SDS011;66420;50.246;14.320;2024-01-10T05:43:11;37.63;;;17.92;;
77350;SDS011;66420;50.246;14.320;2024-01-10T05:45:57;49.50;;;18.88;;
77350;SDS011;66420;50.246;14.320;2024-01-10T05:48:42;50.10;;;19.80;;
77350;SDS011;66420;50.246;14.320;2024-01-10T05:51:27;65.13;;;24.77;;
77350;SDS011;66420;50.246;14.320;2024-01-10T05:54:12;48.85;;;19.95;;
77350;SDS011;66420;50.246;14.320;2024-01-10T05:56:57;51.47;;;20.58;;
77350;SDS011;66420;50.246;14.320;2024-01-10T05:59:41;59.17;;;21.35;;
77350;SDS011;66420;50.246;14.320;2024-01-10T06:02:25;55.00;;;20.63;;
77350;SDS011;66420;50.246;14.320;2024-01-10T06:05:11;53.03;;;19.98;;
77350;SDS011;66420;50.246;14.320;2024-01-10T06:07:56;50.80;;;21.42;;
77350;SDS011;66420;50.246;14.320;2024-01-10T06:10:41;52.63;;;20.73;;
77350;SDS011;66420;50.246;14.320;2024-01-10T06:13:26;43.92;;;19.42;;
77350;SDS011;66420;50.246;14.320;2024-01-10T06:16:11;49.78;;;19.92;;
77350;SDS011;66420;50.246;14.320;2024-01-10T06:18:57;51.70;;;21.08;;
77350;SDS011;66420;50.246;14.320;2024-01-10T06:21:41;49.60;;;18.40;;
77350;SDS011;66420;50.246;14.320;2024-01-10T06:24:26;59.03;;;20.05;;
77350;SDS011;66420;50.246;14.320;2024-01-10T06:27:11;65.18;;;19.20;;
77350;SDS011;66420;50.246;14.320;2024-01-10T06:29:56;55.83;;;20.83;;
77350;SDS011;66420;50.246;14.320;2024-01-10T06:32:40;42.38;;;16.20;;
77350;SDS011;66420;50.246;14.320;2024-01-10T06:35:25;61.72;;;19.95;;
77350;SDS011;66420;50.246;14.320;2024-01-10T06:38:09;53.15;;;20.70;;
77350;SDS011;66420;50.246;14.320;2024-01-10T06:40:58;55.85;;;21.42;;
77350;SDS011;66420;50.246;14.320;2024-01-10T06:43:43;63.35;;;22.00;;
77350;SDS011;66420;50.246;14.320;2024-01-10T06:46:28;64.68;;;24.90;;
77350;SDS011;66420;50.246;14.320;2024-01-10T06:49:14;54.25;;;21.52;;
77350;SDS011;66420;50.246;14.320;2024-01-10T06:51:59;63.85;;;22.42;;
77350;SDS011;66420;50.246;14.320;2024-01-10T06:54:45;52.00;;;18.17;;
77350;SDS011;66420;50.246;14.320;2024-01-10T06:57:30;54.63;;;20.65;;
77350;SDS011;66420;50.246;14.320;2024-01-10T07:00:15;42.65;;;18.60;;
77350;SDS011;66420;50.246;14.320;2024-01-10T07:03:02;51.17;;;18.52;;
77350;SDS011;66420;50.246;14.320;2024-01-10T07:05:47;49.17;;;18.70;;
77350;SDS011;66420;50.246;14.320;2024-01-10T07:08:32;52.50;;;20.33;;
77350;SDS011;66420;50.246;14.320;2024-01-10T07:11:17;46.20;;;21.48;;
77350;SDS011;66420;50.246;14.320;2024-01-10T07:14:02;52.00;;;22.90;;
77350;SDS011;66420;50.246;14.320;2024-01-10T07:16:47;55.50;;;23.75;;
77350;SDS011;66420;50.246;14.320;2024-01-10T07:19:32;60.03;;;20.48;;
77350;SDS011;66420;50.246;14.320;2024-01-10T07:22:17;57.20;;;22.40;;
77350;SDS011;66420;50.246;14.320;2024-01-10T07:25:05;50.67;;;18.80;;
77350;SDS011;66420;50.246;14.320;2024-01-10T07:27:53;67.20;;;24.73;;
77350;SDS011;66420;50.246;14.320;2024-01-10T07:30:39;60.13;;;22.83;;
77350;SDS011;66420;50.246;14.320;2024-01-10T07:33:24;55.10;;;23.30;;
77350;SDS011;66420;50.246;14.320;2024-01-10T07:36:08;43.67;;;19.90;;
77350;SDS011;66420;50.246;14.320;2024-01-10T07:38:53;48.67;;;19.55;;
77350;SDS011;66420;50.246;14.320;2024-01-10T07:41:38;54.28;;;21.30;;
77350;SDS011;66420;50.246;14.320;2024-01-10T07:44:23;44.33;;;19.38;;
77350;SDS011;66420;50.246;14.320;2024-01-10T07:47:09;48.17;;;22.02;;
77350;SDS011;66420;50.246;14.320;2024-01-10T07:49:55;44.25;;;19.98;;
77350;SDS011;66420;50.246;14.320;2024-01-10T07:52:45;54.95;;;22.40;;
77350;SDS011;66420;50.246;14.320;2024-01-10T07:55:33;59.03;;;22.83;;
77350;SDS011;66420;50.246;14.320;2024-01-10T07:58:18;53.67;;;21.75;;
77350;SDS011;66420;50.246;14.320;2024-01-10T08:01:02;53.65;;;19.80;;
77350;SDS011;66420;50.246;14.320;2024-01-10T08:03:47;64.55;;;21.83;;
77350;SDS011;66420;50.246;14.320;2024-01-10T08:06:32;50.58;;;20.58;;
77350;SDS011;66420;50.246;14.320;2024-01-10T08:09:17;63.70;;;22.63;;
77350;SDS011;66420;50.246;14.320;2024-01-10T08:12:03;56.00;;;21.05;;
77350;SDS011;66420;50.246;14.320;2024-01-10T08:14:48;60.10;;;22.92;;
77350;SDS011;66420;50.246;14.320;2024-01-10T08:17:34;50.83;;;19.88;;
77350;SDS011;66420;50.246;14.320;2024-01-10T08:20:21;63.10;;;22.50;;
77350;SDS011;66420;50.246;14.320;2024-01-10T08:23:06;50.28;;;21.63;;
77350;SDS011;66420;50.246;14.320;2024-01-10T08:25:52;56.10;;;18.95;;
77350;SDS011;66420;50.246;14.320;2024-01-10T08:28:37;45.70;;;17.48;;
77350;SDS011;66420;50.246;14.320;2024-01-10T08:31:22;56.40;;;21.20;;
77350;SDS011;66420;50.246;14.320;2024-01-10T08:34:07;50.15;;;21.08;;
77350;SDS011;66420;50.246;14.320;2024-01-10T08:36:52;61.72;;;22.60;;
77350;SDS011;66420;50.246;14.320;2024-01-10T08:39:37;50.58;;;18.40;;
77350;SDS011;66420;50.246;14.320;2024-01-10T08:42:22;48.08;;;19.67;;
77350;SDS011;66420;50.246;14.320;2024-01-10T08:45:06;47.67;;;19.17;;
77350;SDS011;66420;50.246;14.320;2024-01-10T08:47:53;56.08;;;23.08;;
77350;SDS011;66420;50.246;14.320;2024-01-10T08:50:39;62.53;;;23.42;;
77350;SDS011;66420;50.246;14.320;2024-01-10T08:53:24;56.60;;;18.85;;
77350;SDS011;66420;50.246;14.320;2024-01-10T08:56:09;46.92;;;21.05;;
77350;SDS011;66420;50.246;14.320;2024-01-10T08:58:55;62.75;;;24.50;;
77350;SDS011;66420;50.246;14.320;2024-01-10T09:01:41;54.10;;;22.00;;
77350;SDS011;66420;50.246;14.320;2024-01-10T09:04:26;54.50;;;21.60;;
77350;SDS011;66420;50.246;14.320;2024-01-10T09:09:58;43.42;;;17.13;;
77350;SDS011;66420;50.246;14.320;2024-01-10T09:12:43;59.80;;;19.60;;
77350;SDS011;66420;50.246;14.320;2024-01-10T09:15:30;49.67;;;17.60;;
77350;SDS011;66420;50.246;14.320;2024-01-10T09:18:16;50.67;;;17.95;;
77350;SDS011;66420;50.246;14.320;2024-01-10T09:21:04;61.75;;;20.50;;
77350;SDS011;66420;50.246;14.320;2024-01-10T09:23:49;50.22;;;17.35;;
77350;SDS011;66420;50.246;14.320;2024-01-10T09:26:35;51.67;;;18.58;;
77350;SDS011;66420;50.246;14.320;2024-01-10T09:29:20;50.03;;;17.42;;
77350;SDS011;66420;50.246;14.320;2024-01-10T09:32:05;36.83;;;15.77;;
77350;SDS011;66420;50.246;14.320;2024-01-10T09:34:50;42.78;;;14.82;;
77350;SDS011;66420;50.246;14.320;2024-01-10T09:37:35;37.97;;;14.80;;
77350;SDS011;66420;50.246;14.320;2024-01-10T09:40:19;38.53;;;13.98;;
77350;SDS011;66420;50.246;14.320;2024-01-10T09:43:11;44.13;;;15.65;;
77350;SDS011;66420;50.246;14.320;2024-01-10T09:45:57;38.88;;;13.68;;
77350;SDS011;66420;50.246;14.320;2024-01-10T09:48:44;36.60;;;14.02;;
77350;SDS011;66420;50.246;14.320;2024-01-10T09:51:29;42.17;;;15.52;;
77350;SDS011;66420;50.246;14.320;2024-01-10T09:54:17;46.38;;;15.75;;
77350;SDS011;66420;50.246;14.320;2024-01-10T09:57:03;37.83;;;16.10;;
77350;SDS011;66420;50.246;14.320;2024-01-10T09:59:50;41.97;;;14.73;;
77350;SDS011;66420;50.246;14.320;2024-01-10T10:02:41;41.95;;;15.10;;
77350;SDS011;66420;50.246;14.320;2024-01-10T10:05:26;40.55;;;14.32;;
77350;SDS011;66420;50.246;14.320;2024-01-10T10:08:12;35.80;;;13.70;;
77350;SDS011;66420;50.246;14.320;2024-01-10T10:11:07;36.85;;;14.77;;
77350;SDS011;66420;50.246;14.320;2024-01-10T10:13:56;40.75;;;15.00;;
77350;SDS011;66420;50.246;14.320;2024-01-10T10:16:41;39.40;;;13.30;;
77350;SDS011;66420;50.246;14.320;2024-01-10T10:19:26;43.35;;;13.60;;
77350;SDS011;66420;50.246;14.320;2024-01-10T10:22:11;40.92;;;15.02;;
77350;SDS011;66420;50.246;14.320;2024-01-10T10:24:56;39.22;;;13.40;;
77350;SDS011;66420;50.246;14.320;2024-01-10T10:27:41;33.72;;;13.07;;
77350;SDS011;66420;50.246;14.320;2024-01-10T10:30:25;37.35;;;14.43;;
77350;SDS011;66420;50.246;14.320;2024-01-10T10:33:10;40.42;;;14.70;;
77350;SDS011;66420;50.246;14.320;2024-01-10T10:35:55;38.78;;;14.40;;
77350;SDS011;66420;50.246;14.320;2024-01-10T10:38:40;39.17;;;14.73;;
77350;SDS011;66420;50.246;14.320;2024-01-10T10:41:24;32.90;;;13.40;;
77350;SDS011;66420;50.246;14.320;2024-01-10T10:44:11;40.60;;;13.82;;
77350;SDS011;66420;50.246;14.320;2024-01-10T10:47:01;40.60;;;13.77;;
77350;SDS011;66420;50.246;14.320;2024-01-10T10:49:51;34.83;;;13.57;;
77350;SDS011;66420;50.246;14.320;2024-01-10T10:52:39;42.67;;;13.60;;
77350;SDS011;66420;50.246;14.320;2024-01-10T10:55:29;38.03;;;13.27;;
77350;SDS011;66420;50.246;14.320;2024-01-10T10:58:14;34.75;;;14.93;;
77350;SDS011;66420;50.246;14.320;2024-01-10T11:00:59;34.50;;;12.88;;
77350;SDS011;66420;50.246;14.320;2024-01-10T11:03:44;32.90;;;12.30;;
77350;SDS011;66420;50.246;14.320;2024-01-10T11:06:31;32.72;;;12.60;;
77350;SDS011;66420;50.246;14.320;2024-01-10T11:09:18;35.83;;;12.88;;
77350;SDS011;66420;50.246;14.320;2024-01-10T11:15:15;43.05;;;13.93;;
77350;SDS011;66420;50.246;14.320;2024-01-10T11:18:20;32.80;;;13.38;;
77350;SDS011;66420;50.246;14.320;2024-01-10T11:24:09;35.90;;;13.85;;
77350;SDS011;66420;50.246;14.320;2024-01-10T11:27:14;33.40;;;13.75;;
77350;SDS011;66420;50.246;14.320;2024-01-10T11:30:00;35.42;;;12.57;;
77350;SDS011;66420;50.246;14.320;2024-01-10T11:32:44;36.55;;;13.68;;
77350;SDS011;66420;50.246;14.320;2024-01-10T11:35:29;34.20;;;13.43;;
77350;SDS011;66420;50.246;14.320;2024-01-10T11:38:16;35.72;;;13.63;;
77350;SDS011;66420;50.246;14.320;2024-01-10T11:41:01;42.47;;;14.10;;
77350;SDS011;66420;50.246;14.320;2024-01-10T11:43:46;38.67;;;14.02;;
77350;SDS011;66420;50.246;14.320;2024-01-10T11:46:52;38.40;;;14.60;;
77350;SDS011;66420;50.246;14.320;2024-01-10T11:49:41;39.08;;;13.90;;
77350;SDS011;66420;50.246;14.320;2024-01-10T11:52:38;32.60;;;12.80;;
77350;SDS011;66420;50.246;14.320;2024-01-10T11:58:39;35.67;;;14.30;;
77350;SDS011;66420;50.246;14.320;2024-01-10T12:01:37;34.70;;;12.75;;
77350;SDS011;66420;50.246;14.320;2024-01-10T12:04:24;35.75;;;14.77;;
77350;SDS011;66420;50.246;14.320;2024-01-10T12:07:14;38.85;;;14.45;;
77350;SDS011;66420;50.246;14.320;2024-01-10T12:10:00;37.20;;;13.63;;
77350;SDS011;66420;50.246;14.320;2024-01-10T12:12:45;34.72;;;14.20;;
77350;SDS011;66420;50.246;14.320;2024-01-10T12:15:30;39.92;;;15.20;;
77350;SDS011;66420;50.246;14.320;2024-01-10T12:18:14;37.22;;;14.40;;
77350;SDS011;66420;50.246;14.320;2024-01-10T12:20:59;33.70;;;14.13;;
77350;SDS011;66420;50.246;14.320;2024-01-10T12:23:44;36.67;;;14.27;;
77350;SDS011;66420;50.246;14.320;2024-01-10T12:26:29;42.85;;;15.68;;
77350;SDS011;66420;50.246;14.320;2024-01-10T12:29:16;42.95;;;15.45;;
77350;SDS011;66420;50.246;14.320;2024-01-10T12:32:02;38.25;;;16.25;;
77350;SDS011;66420;50.246;14.320;2024-01-10T12:34:47;36.20;;;15.30;;
77350;SDS011;66420;50.246;14.320;2024-01-10T12:37:33;35.03;;;15.32;;
77350;SDS011;66420;50.246;14.320;2024-01-10T12:40:17;35.55;;;13.25;;
77350;SDS011;66420;50.246;14.320;2024-01-10T12:43:05;32.78;;;12.77;;
77350;SDS011;66420;50.246;14.320;2024-01-10T12:48:57;39.03;;;14.93;;
77350;SDS011;66420;50.246;14.320;2024-01-10T12:51:46;32.90;;;12.55;;
77350;SDS011;66420;50.246;14.320;2024-01-10T12:54:31;31.27;;;14.23;;
77350;SDS011;66420;50.246;14.320;2024-01-10T12:57:16;35.65;;;12.85;;
77350;SDS011;66420;50.246;14.320;2024-01-10T13:00:01;33.10;;;13.13;;
77350;SDS011;66420;50.246;14.320;2024-01-10T13:02:50;35.13;;;14.48;;
77350;SDS011;66420;50.246;14.320;2024-01-10T13:05:35;39.90;;;14.93;;
77350;SDS011;66420;50.246;14.320;2024-01-10T13:08:19;33.50;;;12.93;;
77350;SDS011;66420;50.246;14.320;2024-01-10T13:11:04;38.15;;;14.30;;
77350;SDS011;66420;50.246;14.320;2024-01-10T13:13:52;31.85;;;13.45;;
77350;SDS011;66420;50.246;14.320;2024-01-10T13:16:37;34.35;;;13.35;;
77350;SDS011;66420;50.246;14.320;2024-01-10T13:19:22;29.58;;;11.65;;
77350;SDS011;66420;50.246;14.320;2024-01-10T13:22:07;37.03;;;13.02;;
77350;SDS011;66420;50.246;14.320;2024-01-10T13:24:52;32.80;;;12.32;;
77350;SDS011;66420;50.246;14.320;2024-01-10T13:27:37;28.52;;;11.93;;
77350;SDS011;66420;50.246;14.320;2024-01-10T13:30:22;31.85;;;12.00;;
77350;SDS011;66420;50.246;14.320;2024-01-10T13:33:07;35.47;;;12.30;;
77350;SDS011;66420;50.246;14.320;2024-01-10T13:35:53;32.67;;;13.60;;
77350;SDS011;66420;50.246;14.320;2024-01-10T13:38:38;28.65;;;12.23;;
77350;SDS011;66420;50.246;14.320;2024-01-10T13:41:23;30.88;;;12.68;;
77350;SDS011;66420;50.246;14.320;2024-01-10T13:44:08;31.60;;;12.75;;
77350;SDS011;66420;50.246;14.320;2024-01-10T13:46:54;35.90;;;14.02;;
77350;SDS011;66420;50.246;14.320;2024-01-10T13:49:40;33.22;;;13.27;;
77350;SDS011;66420;50.246;14.320;2024-01-10T13:52:26;34.50;;;13.25;;
77350;SDS011;66420;50.246;14.320;2024-01-10T13:55:10;31.08;;;12.35;;
77350;SDS011;66420;50.246;14.320;2024-01-10T13:57:56;33.83;;;13.45;;
77350;SDS011;66420;50.246;14.320;2024-01-10T14:00:41;38.63;;;13.63;;
77350;SDS011;66420;50.246;14.320;2024-01-10T14:03:25;32.85;;;12.60;;
77350;SDS011;66420;50.246;14.320;2024-01-10T14:06:11;34.22;;;13.38;;
77350;SDS011;66420;50.246;14.320;2024-01-10T14:08:56;33.55;;;12.85;;
77350;SDS011;66420;50.246;14.320;2024-01-10T14:11:42;34.72;;;13.15;;
77350;SDS011;66420;50.246;14.320;2024-01-10T14:14:28;36.13;;;13.10;;
77350;SDS011;66420;50.246;14.320;2024-01-10T14:17:13;38.60;;;14.55;;
77350;SDS011;66420;50.246;14.320;2024-01-10T14:19:58;36.47;;;13.57;;
77350;SDS011;66420;50.246;14.320;2024-01-10T14:22:43;35.25;;;13.18;;
77350;SDS011;66420;50.246;14.320;2024-01-10T14:25:29;35.05;;;13.75;;
77350;SDS011;66420;50.246;14.320;2024-01-10T14:28:14;33.60;;;13.10;;
77350;SDS011;66420;50.246;14.320;2024-01-10T14:30:58;33.97;;;13.07;;
77350;SDS011;66420;50.246;14.320;2024-01-10T14:33:44;36.97;;;13.45;;
77350;SDS011;66420;50.246;14.320;2024-01-10T14:36:29;35.58;;;14.55;;
77350;SDS011;66420;50.246;14.320;2024-01-10T14:39:14;29.65;;;12.43;;
77350;SDS011;66420;50.246;14.320;2024-01-10T14:42:00;38.03;;;14.05;;
77350;SDS011;66420;50.246;14.320;2024-01-10T14:44:46;33.65;;;13.45;;
77350;SDS011;66420;50.246;14.320;2024-01-10T14:47:30;35.42;;;13.82;;
77350;SDS011;66420;50.246;14.320;2024-01-10T14:50:15;35.30;;;13.90;;
77350;SDS011;66420;50.246;14.320;2024-01-10T14:52:59;43.25;;;15.82;;
77350;SDS011;66420;50.246;14.320;2024-01-10T14:55:44;32.92;;;13.43;;
77350;SDS011;66420;50.246;14.320;2024-01-10T14:58:28;30.13;;;12.90;;
77350;SDS011;66420;50.246;14.320;2024-01-10T15:01:14;38.25;;;13.55;;
77350;SDS011;66420;50.246;14.320;2024-01-10T15:03:58;29.85;;;12.63;;
77350;SDS011;66420;50.246;14.320;2024-01-10T15:06:44;38.70;;;14.93;;
77350;SDS011;66420;50.246;14.320;2024-01-10T15:09:29;33.58;;;11.93;;
77350;SDS011;66420;50.246;14.320;2024-01-10T15:12:14;37.70;;;13.18;;
77350;SDS011;66420;50.246;14.320;2024-01-10T15:14:59;39.35;;;14.77;;
77350;SDS011;66420;50.246;14.320;2024-01-10T15:17:44;38.75;;;13.70;;
77350;SDS011;66420;50.246;14.320;2024-01-10T15:20:29;36.67;;;13.00;;
77350;SDS011;66420;50.246;14.320;2024-01-10T15:23:14;38.95;;;14.57;;
77350;SDS011;66420;50.246;14.320;2024-01-10T15:25:58;41.85;;;15.48;;
77350;SDS011;66420;50.246;14.320;2024-01-10T15:28:43;44.60;;;14.88;;
77350;SDS011;66420;50.246;14.320;2024-01-10T15:31:29;39.38;;;13.88;;
77350;SDS011;66420;50.246;14.320;2024-01-10T15:34:14;43.13;;;15.48;;
77350;SDS011;66420;50.246;14.320;2024-01-10T15:36:58;47.45;;;15.50;;
77350;SDS011;66420;50.246;14.320;2024-01-10T15:39:45;41.78;;;16.25;;
77350;SDS011;66420;50.246;14.320;2024-01-10T15:42:30;47.22;;;16.67;;
77350;SDS011;66420;50.246;14.320;2024-01-10T15:45:15;39.83;;;14.50;;
77350;SDS011;66420;50.246;14.320;2024-01-10T15:48:00;41.22;;;14.50;;
77350;SDS011;66420;50.246;14.320;2024-01-10T15:50:45;40.00;;;14.63;;
77350;SDS011;66420;50.246;14.320;2024-01-10T15:53:30;42.50;;;16.48;;
77350;SDS011;66420;50.246;14.320;2024-01-10T15:56:15;37.88;;;15.57;;
77350;SDS011;66420;50.246;14.320;2024-01-10T15:59:00;44.42;;;17.08;;
77350;SDS011;66420;50.246;14.320;2024-01-10T16:01:45;55.22;;;18.85;;
77350;SDS011;66420;50.246;14.320;2024-01-10T16:04:29;53.58;;;19.20;;
77350;SDS011;66420;50.246;14.320;2024-01-10T16:07:15;57.92;;;20.60;;
77350;SDS011;66420;50.246;14.320;2024-01-10T16:10:00;58.38;;;20.92;;
77350;SDS011;66420;50.246;14.320;2024-01-10T16:12:45;59.17;;;19.35;;
77350;SDS011;66420;50.246;14.320;2024-01-10T16:15:30;47.17;;;17.88;;
77350;SDS011;66420;50.246;14.320;2024-01-10T16:18:15;50.45;;;16.83;;